createdAt,value
2023-01-19T00:00:54.541Z,1.95
2023-01-19T00:03:21.750Z,2.10
2023-01-19T00:05:48.918Z,2.10
2023-01-19T00:08:15.920Z,1.85
2023-01-19T00:10:51.134Z,1.90
2023-01-19T00:13:18.646Z,2.00
2023-01-19T00:15:45.551Z,2.25
2023-01-19T00:18:12.417Z,2.10
2023-01-19T00:20:40.066Z,1.88
2023-01-19T00:23:08.081Z,2.08
2023-01-19T00:25:36.162Z,1.80
2023-01-19T00:28:03.205Z,1.80
2023-01-19T00:30:30.417Z,2.10
2023-01-19T00:32:57.382Z,2.10
2023-01-19T00:35:24.338Z,2.47
2023-01-19T00:37:51.174Z,2.08
2023-01-19T00:40:18.323Z,2.00
2023-01-19T00:42:45.763Z,2.00
2023-01-19T00:45:14.999Z,1.70
2023-01-19T00:47:42.045Z,2.35
2023-01-19T00:50:13.137Z,1.92
2023-01-19T00:52:44.176Z,2.00
2023-01-19T00:55:13.302Z,2.60
2023-01-19T00:57:40.806Z,1.70
2023-01-19T01:00:12.789Z,2.13
2023-01-19T01:02:41.348Z,1.85
2023-01-19T01:05:09.260Z,2.10
2023-01-19T01:07:45.159Z,1.75
2023-01-19T01:10:15.901Z,1.77
2023-01-19T01:12:54.938Z,2.17
2023-01-19T01:17:53.197Z,1.65
2023-01-19T01:20:27.086Z,1.98
2023-01-19T01:22:54.889Z,1.85
2023-01-19T01:25:23.630Z,2.13
2023-01-19T01:27:50.952Z,1.60
2023-01-19T01:30:18.230Z,1.70
2023-01-19T01:32:45.114Z,1.73
2023-01-19T01:35:13.289Z,1.90
2023-01-19T01:37:40.686Z,1.60
2023-01-19T01:40:10.315Z,1.48
2023-01-19T01:42:37.209Z,1.73
2023-01-19T01:45:21.969Z,1.38
2023-01-19T01:47:49.841Z,1.20
2023-01-19T01:50:23.953Z,1.50
2023-01-19T01:53:06.459Z,1.30
2023-01-19T01:55:39.712Z,1.45
2023-01-19T01:58:09.529Z,1.30
2023-01-19T02:00:56.317Z,1.50
2023-01-19T02:03:24.785Z,1.63
2023-01-19T02:05:53.186Z,1.50
2023-01-19T02:08:46.949Z,1.40
2023-01-19T02:11:32.510Z,1.27
2023-01-19T02:13:59.423Z,1.10
2023-01-19T02:16:26.272Z,1.20
2023-01-19T02:18:53.165Z,1.00
2023-01-19T02:21:26.175Z,1.13
2023-01-19T02:23:55.372Z,1.02
2023-01-19T02:26:28.372Z,1.20
2023-01-19T02:29:08.765Z,1.02
2023-01-19T02:31:37.379Z,1.20
2023-01-19T02:34:06.076Z,1.45
2023-01-19T02:36:42.517Z,1.00
2023-01-19T02:39:11.087Z,1.00
2023-01-19T02:41:42.538Z,1.10
2023-01-19T02:44:11.004Z,1.20
2023-01-19T02:46:38.579Z,1.10
2023-01-19T02:49:05.441Z,1.20
2023-01-19T02:51:32.796Z,1.00
2023-01-19T02:54:25.360Z,1.00
2023-01-19T02:57:12.989Z,1.00
2023-01-19T03:00:10.587Z,1.08
2023-01-19T03:02:59.484Z,1.10
2023-01-19T03:05:44.992Z,0.98
2023-01-19T03:08:29.926Z,1.00
2023-01-19T03:11:10.195Z,0.82
2023-01-19T03:14:00.965Z,1.00
2023-01-19T03:16:49.576Z,0.90
2023-01-19T03:19:27.185Z,0.80
2023-01-19T03:22:00.882Z,0.90
2023-01-19T03:24:31.537Z,1.10
2023-01-19T03:27:09.410Z,0.90
2023-01-19T03:29:38.104Z,0.90
2023-01-19T03:32:10.458Z,1.00
2023-01-19T03:34:39.122Z,0.80
2023-01-19T03:37:10.337Z,0.90
2023-01-19T03:39:37.579Z,1.20
2023-01-19T03:42:11.194Z,0.90
2023-01-19T03:44:40.312Z,0.88
2023-01-19T03:47:09.823Z,1.00
2023-01-19T03:49:38.392Z,0.98
2023-01-19T03:52:05.947Z,1.05
2023-01-19T03:54:32.815Z,1.42
2023-01-19T03:56:59.732Z,0.82
2023-01-19T03:59:26.876Z,1.30
2023-01-19T04:01:53.809Z,0.93
2023-01-19T04:04:20.668Z,0.80
2023-01-19T04:06:47.547Z,0.93
2023-01-19T04:09:14.312Z,0.88
2023-01-19T04:11:41.108Z,1.00
2023-01-19T04:14:07.889Z,0.98
2023-01-19T04:16:35.122Z,0.88
2023-01-19T04:19:01.838Z,0.80
2023-01-19T04:21:28.676Z,0.90
2023-01-19T04:23:55.402Z,1.00
2023-01-19T04:26:22.382Z,0.80
2023-01-19T04:28:49.281Z,0.95
2023-01-19T04:31:16.175Z,0.80
2023-01-19T04:33:42.921Z,0.95
2023-01-19T04:36:09.864Z,0.73
2023-01-19T04:38:36.740Z,0.70
2023-01-19T04:41:03.584Z,0.77
2023-01-19T04:43:30.363Z,1.08
2023-01-19T04:45:57.247Z,0.77
2023-01-19T04:48:24.034Z,1.00
2023-01-19T04:50:51.753Z,1.00
2023-01-19T04:53:18.588Z,1.00
2023-01-19T04:55:46.586Z,1.05
2023-01-19T04:58:13.654Z,0.95
2023-01-19T05:00:40.557Z,1.00
2023-01-19T05:03:07.444Z,0.88
2023-01-19T05:05:34.456Z,0.82
2023-01-19T05:08:01.201Z,1.15
2023-01-19T05:10:28.282Z,0.93
2023-01-19T05:12:55.493Z,0.77
2023-01-19T05:15:22.595Z,1.00
2023-01-19T05:17:49.506Z,0.90
2023-01-19T05:20:17.455Z,0.90
2023-01-19T05:22:50.547Z,0.75
2023-01-19T05:25:17.760Z,1.20
2023-01-19T05:27:44.759Z,0.80
2023-01-19T05:30:13.374Z,0.82
2023-01-19T05:32:40.433Z,1.17
2023-01-19T05:35:07.961Z,1.05
2023-01-19T05:37:34.842Z,1.00
2023-01-19T05:40:01.776Z,1.00
2023-01-19T05:42:29.539Z,0.80
2023-01-19T05:44:57.169Z,0.90
2023-01-19T05:47:24.055Z,1.15
2023-01-19T05:49:50.840Z,1.20
2023-01-19T05:52:17.766Z,1.08
2023-01-19T05:54:44.797Z,1.08
2023-01-19T05:57:11.960Z,1.50
2023-01-19T05:59:38.708Z,1.15
2023-01-19T06:02:06.269Z,1.40
2023-01-19T06:04:33.063Z,1.10
2023-01-19T06:06:59.873Z,1.23
2023-01-19T06:09:26.623Z,1.20
2023-01-19T06:11:55.703Z,1.08
2023-01-19T06:14:22.484Z,1.30
2023-01-19T06:16:49.310Z,1.13
2023-01-19T06:19:16.175Z,1.40
2023-01-19T06:21:49.345Z,1.63
2023-01-19T06:24:16.476Z,1.20
2023-01-19T06:26:46.304Z,1.40
2023-01-19T06:29:13.791Z,1.50
2023-01-19T06:31:41.780Z,1.80
2023-01-19T06:34:09.215Z,1.10
2023-01-19T06:36:36.698Z,1.27
2023-01-19T06:39:05.955Z,1.40
2023-01-19T06:41:33.495Z,1.50
2023-01-19T06:44:00.552Z,1.40
2023-01-19T06:46:27.782Z,1.00
2023-01-19T06:48:54.813Z,1.42
2023-01-19T06:51:22.883Z,1.30
2023-01-19T06:53:50.162Z,1.20
2023-01-19T06:56:17.021Z,1.50
2023-01-19T06:58:44.456Z,1.30
2023-01-19T07:01:11.435Z,1.20
2023-01-19T07:03:38.647Z,1.70
2023-01-19T07:06:08.925Z,1.55
2023-01-19T07:08:36.725Z,1.05
2023-01-19T07:11:24.658Z,1.60
2023-01-19T07:13:55.613Z,1.75
2023-01-19T07:16:23.938Z,1.75
2023-01-19T07:18:50.987Z,1.33
2023-01-19T07:21:18.123Z,1.58
2023-01-19T07:23:47.796Z,1.30
2023-01-19T07:26:15.381Z,1.42
2023-01-19T07:28:42.367Z,1.50
2023-01-19T07:31:09.651Z,1.60
2023-01-19T07:33:36.554Z,2.13
2023-01-19T07:36:03.787Z,1.50
2023-01-19T07:38:30.613Z,1.67
2023-01-19T07:41:09.115Z,1.30
2023-01-19T07:43:35.943Z,1.52
2023-01-19T07:46:06.016Z,1.70
2023-01-19T07:48:32.966Z,2.38
2023-01-19T07:51:05.649Z,1.48
2023-01-19T07:53:32.977Z,1.58
2023-01-19T07:55:59.817Z,1.40
2023-01-19T07:58:26.896Z,1.60
2023-01-19T08:00:53.979Z,2.05
2023-01-19T08:03:21.091Z,1.90
2023-01-19T08:05:53.045Z,1.63
2023-01-19T08:08:20.623Z,1.63
2023-01-19T08:10:50.726Z,1.50
2023-01-19T08:13:18.676Z,1.48
2023-01-19T08:15:48.769Z,2.00
2023-01-19T08:18:15.711Z,2.00
2023-01-19T08:20:42.503Z,1.83
2023-01-19T08:23:09.816Z,1.92
2023-01-19T08:25:39.644Z,1.60
2023-01-19T08:28:07.194Z,1.65
2023-01-19T08:30:34.730Z,1.70
2023-01-19T08:33:05.014Z,1.58
2023-01-19T08:35:33.382Z,1.70
2023-01-19T08:38:01.730Z,1.73
2023-01-19T08:40:29.936Z,2.25
2023-01-19T08:43:03.636Z,1.50
2023-01-19T08:45:31.111Z,1.38
2023-01-19T08:47:59.152Z,1.50
2023-01-19T08:50:27.172Z,1.58
2023-01-19T08:52:57.520Z,1.50
2023-01-19T08:55:24.945Z,1.70
2023-01-19T08:57:57.029Z,1.58
2023-01-19T09:00:25.207Z,1.40
2023-01-19T09:02:52.109Z,1.80
2023-01-19T09:05:19.133Z,1.88
2023-01-19T09:07:48.128Z,1.35
2023-01-19T09:10:16.027Z,2.08
2023-01-19T09:12:44.083Z,1.52
2023-01-19T09:15:13.767Z,1.38
2023-01-19T09:17:43.810Z,1.63
2023-01-19T09:20:11.092Z,1.30
2023-01-19T09:22:39.609Z,1.45
2023-01-19T09:25:07.903Z,1.60
2023-01-19T09:27:35.056Z,1.98
2023-01-19T09:30:02.737Z,1.67
2023-01-19T09:32:29.667Z,1.90
2023-01-19T09:34:56.822Z,1.77
2023-01-19T09:37:23.673Z,1.77
2023-01-19T09:39:50.556Z,1.50
2023-01-19T09:42:27.413Z,1.45
2023-01-19T09:44:54.591Z,1.65
2023-01-19T09:47:28.363Z,1.92
2023-01-19T09:50:26.149Z,1.70
2023-01-19T09:53:04.462Z,1.75
2023-01-19T09:55:31.522Z,1.67
2023-01-19T09:57:58.824Z,1.40
2023-01-19T10:00:28.024Z,1.35
2023-01-19T10:03:16.617Z,1.55
2023-01-19T10:05:57.927Z,1.38
2023-01-19T10:08:56.999Z,1.65
2023-01-19T10:11:51.507Z,1.25
2023-01-19T10:14:40.090Z,1.40
2023-01-19T10:17:15.294Z,1.30
2023-01-19T10:19:47.567Z,1.70
2023-01-19T10:22:22.213Z,1.50
2023-01-19T10:24:57.084Z,1.60
2023-01-19T10:27:28.561Z,1.50
2023-01-19T10:29:56.514Z,1.85
2023-01-19T10:32:26.268Z,1.40
2023-01-19T10:34:54.976Z,1.55
2023-01-19T10:37:27.970Z,1.67
2023-01-19T10:40:02.331Z,1.38
2023-01-19T10:42:30.928Z,1.50
2023-01-19T10:44:57.855Z,1.45
2023-01-19T10:47:33.505Z,1.48
2023-01-19T10:50:01.179Z,1.63
2023-01-19T10:52:33.371Z,1.70
2023-01-19T10:55:02.618Z,1.63
2023-01-19T10:57:34.542Z,1.48
2023-01-19T11:00:01.427Z,1.67
2023-01-19T11:02:30.448Z,1.42
2023-01-19T11:04:59.837Z,1.40
2023-01-19T11:07:26.594Z,1.25
2023-01-19T11:10:11.692Z,2.08
2023-01-19T11:13:01.390Z,1.98
2023-01-19T11:15:32.093Z,1.42
2023-01-19T11:17:59.924Z,1.75
2023-01-19T11:20:43.822Z,1.45
2023-01-19T11:23:27.449Z,1.35
2023-01-19T11:25:58.096Z,1.55
2023-01-19T11:28:32.667Z,2.20
2023-01-19T11:31:02.102Z,1.23
2023-01-19T11:33:43.513Z,1.13
2023-01-19T11:36:21.330Z,1.20
2023-01-19T11:38:51.214Z,1.33
2023-01-19T11:41:27.444Z,1.60
2023-01-19T11:43:57.945Z,1.83
2023-01-19T11:46:32.884Z,1.73
2023-01-19T11:49:04.574Z,1.70
2023-01-19T11:51:39.288Z,1.30
2023-01-19T11:54:20.656Z,1.60
2023-01-19T11:56:49.063Z,1.40
2023-01-19T11:59:15.908Z,1.33
2023-01-19T12:01:56.198Z,1.67
2023-01-19T12:04:33.681Z,1.60
2023-01-19T12:07:07.497Z,1.52
2023-01-19T12:09:42.730Z,1.40
2023-01-19T12:12:29.767Z,1.48
2023-01-19T12:15:08.641Z,2.20
2023-01-19T12:17:40.563Z,2.00
2023-01-19T12:20:25.182Z,1.55
2023-01-19T12:23:30.718Z,1.83
2023-01-19T12:26:16.031Z,1.65
2023-01-19T12:28:49.810Z,1.15
2023-01-19T12:31:18.656Z,1.40
2023-01-19T12:33:45.981Z,1.52
2023-01-19T12:36:35.372Z,1.40
2023-01-19T12:39:08.153Z,1.30
2023-01-19T12:41:37.234Z,1.65
2023-01-19T12:44:19.207Z,1.55
2023-01-19T12:47:06.366Z,1.30
2023-01-19T12:49:50.411Z,1.55
2023-01-19T12:52:28.248Z,1.40
2023-01-19T12:55:19.784Z,2.10
2023-01-19T12:57:52.657Z,2.28
2023-01-19T13:00:25.936Z,1.17
2023-01-19T13:03:19.047Z,1.40
2023-01-19T13:05:55.104Z,1.17
2023-01-19T13:09:01.033Z,1.30
2023-01-19T13:11:33.272Z,1.35
2023-01-19T13:14:01.297Z,1.77
2023-01-19T13:16:28.126Z,1.52
2023-01-19T13:18:58.605Z,1.08
2023-01-19T13:21:44.807Z,1.15
2023-01-19T13:24:17.796Z,1.48
2023-01-19T13:26:50.693Z,1.10
2023-01-19T13:29:34.088Z,1.20
2023-01-19T13:32:11.694Z,1.02
2023-01-19T13:34:45.455Z,1.48
2023-01-19T13:37:26.132Z,1.58
2023-01-19T13:39:54.707Z,1.38
2023-01-19T13:42:28.308Z,1.55
2023-01-19T13:44:58.892Z,1.50
2023-01-19T13:47:48.017Z,1.00
2023-01-19T13:50:33.291Z,1.40
2023-01-19T13:53:01.629Z,1.30
2023-01-19T13:55:30.940Z,1.63
2023-01-19T13:57:58.460Z,1.42
2023-01-19T14:00:27.753Z,1.40
2023-01-19T14:03:21.311Z,1.50
2023-01-19T14:05:52.147Z,1.33
2023-01-19T14:08:19.846Z,1.50
2023-01-19T14:11:00.209Z,1.55
2023-01-19T14:13:37.450Z,1.98
2023-01-19T14:16:15.604Z,1.73
2023-01-19T14:18:43.064Z,1.83
2023-01-19T14:21:15.191Z,1.60
2023-01-19T14:23:52.277Z,2.03
2023-01-19T14:26:37.660Z,1.60
2023-01-19T14:29:28.317Z,1.77
2023-01-19T14:32:01.194Z,1.70
2023-01-19T14:34:47.977Z,1.55
2023-01-19T14:37:28.466Z,1.55
2023-01-19T14:40:19.935Z,1.55
2023-01-19T14:43:13.521Z,1.45
2023-01-19T14:45:46.438Z,1.30
2023-01-19T14:48:18.385Z,1.85
2023-01-19T14:51:01.924Z,1.38
2023-01-19T14:53:36.657Z,1.33
2023-01-19T14:56:05.654Z,1.17
2023-01-19T14:58:36.277Z,1.17
2023-01-19T15:01:04.621Z,1.30
2023-01-19T15:04:35.553Z,1.50
2023-01-19T15:07:02.640Z,1.00
2023-01-19T15:09:29.471Z,1.50
2023-01-19T15:11:56.402Z,1.35
2023-01-19T15:14:23.343Z,1.05
2023-01-19T15:16:50.510Z,1.40
2023-01-19T15:19:17.883Z,1.40
2023-01-19T15:21:46.906Z,1.20
2023-01-19T15:24:41.972Z,1.45
2023-01-19T15:27:13.796Z,1.17
2023-01-19T15:29:41.055Z,1.20
2023-01-19T15:32:15.745Z,1.42
2023-01-19T15:34:43.037Z,1.50
2023-01-19T15:37:09.948Z,1.10
2023-01-19T15:39:36.851Z,1.27
2023-01-19T15:42:03.805Z,1.30
2023-01-19T15:44:30.800Z,1.20
2023-01-19T15:46:57.644Z,1.33
2023-01-19T15:49:24.731Z,1.25
2023-01-19T15:51:51.744Z,1.23
2023-01-19T15:54:19.009Z,1.27
2023-01-19T15:56:46.165Z,1.10
2023-01-19T15:59:13.040Z,1.20
2023-01-19T16:01:55.021Z,1.55
2023-01-19T16:04:22.042Z,1.02
2023-01-19T16:06:49.976Z,1.10
2023-01-19T16:09:19.958Z,1.33
2023-01-19T16:11:46.979Z,1.00
2023-01-19T16:14:15.087Z,1.10
2023-01-19T16:16:44.884Z,1.10
2023-01-19T16:19:14.762Z,1.98
2023-01-19T16:21:42.824Z,1.20
2023-01-19T16:24:09.714Z,1.20
2023-01-19T16:26:36.759Z,1.45
2023-01-19T16:29:08.760Z,0.98
2023-01-19T16:31:39.311Z,1.10
2023-01-19T16:34:06.750Z,0.98
2023-01-19T16:36:36.143Z,1.10
2023-01-19T16:39:10.438Z,1.30
2023-01-19T16:41:37.263Z,1.20
2023-01-19T16:44:04.633Z,1.02
2023-01-19T16:46:35.032Z,1.27
2023-01-19T16:49:14.547Z,1.20
2023-01-19T16:51:41.531Z,1.00
2023-01-19T16:54:19.989Z,1.05
2023-01-19T16:56:47.258Z,1.10
2023-01-19T16:59:16.273Z,1.02
2023-01-19T17:01:45.137Z,1.75
2023-01-19T17:04:13.486Z,1.10
2023-01-19T17:06:40.772Z,1.52
2023-01-19T17:09:09.434Z,1.33
2023-01-19T17:11:36.611Z,1.67
2023-01-19T17:14:06.510Z,1.35
2023-01-19T17:16:34.517Z,1.45
2023-01-19T17:19:03.565Z,1.48
2023-01-19T17:21:30.661Z,1.10
2023-01-19T17:23:58.275Z,1.70
2023-01-19T17:26:28.233Z,1.70
2023-01-19T17:29:13.220Z,1.50
2023-01-19T17:31:43.572Z,1.40
2023-01-19T17:34:10.520Z,1.40
2023-01-19T17:36:37.964Z,1.30
2023-01-19T17:39:07.254Z,1.50
2023-01-19T17:41:35.485Z,1.45
2023-01-19T17:44:04.009Z,1.33
2023-01-19T17:46:31.605Z,1.70
2023-01-19T17:49:01.718Z,1.45
2023-01-19T17:51:29.707Z,1.55
2023-01-19T17:53:57.363Z,1.63
2023-01-19T17:56:30.228Z,1.52
2023-01-19T17:58:58.506Z,1.48
2023-01-19T18:01:27.901Z,1.45
2023-01-19T18:03:55.572Z,1.50
2023-01-19T18:06:23.065Z,1.35
2023-01-19T18:08:50.440Z,1.67
2023-01-19T18:11:20.036Z,1.58
2023-01-19T18:13:48.496Z,1.30
2023-01-19T18:16:18.504Z,1.55
2023-01-19T18:18:45.384Z,1.40
2023-01-19T18:21:14.086Z,1.80
2023-01-19T18:23:43.464Z,1.38
2023-01-19T18:26:12.846Z,1.63
2023-01-19T18:28:39.787Z,1.73
2023-01-19T18:31:08.569Z,1.58
2023-01-19T18:33:36.096Z,1.38
2023-01-19T18:36:03.842Z,1.50
2023-01-19T18:38:30.629Z,1.83
2023-01-19T18:41:10.468Z,1.48
2023-01-19T18:43:37.728Z,1.67
2023-01-19T18:46:05.288Z,1.63
2023-01-19T18:48:32.237Z,1.60
2023-01-19T18:51:03.361Z,1.40
2023-01-19T18:53:31.697Z,1.70
2023-01-19T18:55:59.872Z,1.40
2023-01-19T18:58:29.294Z,1.20
2023-01-19T19:00:56.744Z,1.52
2023-01-19T19:03:23.611Z,1.48
2023-01-19T19:05:50.786Z,1.38
2023-01-19T19:08:17.980Z,1.77
2023-01-19T19:10:45.283Z,1.70
2023-01-19T19:13:13.749Z,1.40
2023-01-19T19:15:40.580Z,1.40
2023-01-19T19:18:09.014Z,1.50
2023-01-19T19:20:39.432Z,1.58
2023-01-19T19:23:06.397Z,2.03
2023-01-19T19:25:34.038Z,1.20
2023-01-19T19:28:00.883Z,1.20
2023-01-19T19:30:27.782Z,1.55
2023-01-19T19:32:59.846Z,1.27
2023-01-19T19:35:26.898Z,1.30
2023-01-19T19:37:57.399Z,1.00
2023-01-19T19:40:26.399Z,1.40
2023-01-19T19:42:53.266Z,1.30
2023-01-19T19:45:20.166Z,1.42
2023-01-19T19:47:47.047Z,1.20
2023-01-19T19:50:14.411Z,1.10
2023-01-19T19:52:42.064Z,1.20
2023-01-19T19:55:10.627Z,1.20
2023-01-19T19:57:37.820Z,0.90
2023-01-19T20:00:05.626Z,1.13
2023-01-19T20:02:36.789Z,1.10
2023-01-19T20:05:04.659Z,1.15
2023-01-19T20:07:31.729Z,1.42
2023-01-19T20:09:58.906Z,1.20
2023-01-19T20:12:25.670Z,1.25
2023-01-19T20:14:52.652Z,1.10
2023-01-19T20:17:20.713Z,1.50
2023-01-19T20:19:48.930Z,1.00
2023-01-19T20:22:16.037Z,1.27
2023-01-19T20:24:42.935Z,1.15
2023-01-19T20:27:09.833Z,1.13
2023-01-19T20:29:36.670Z,1.17
2023-01-19T20:32:03.865Z,1.20
2023-01-19T20:34:33.667Z,0.80
2023-01-19T20:37:01.659Z,0.80
2023-01-19T20:39:30.254Z,1.20
2023-01-19T20:41:57.198Z,1.00
2023-01-19T20:44:25.569Z,1.27
2023-01-19T20:46:53.936Z,1.05
2023-01-19T20:49:21.189Z,1.10
2023-01-19T20:51:48.485Z,1.02
2023-01-19T20:54:18.268Z,1.17
